首页
METAR-TAF:

METAR-TAF

机场 :

Nordholz, 德国

纬度: 53-46N, 经度: 008-40E, 海拔: 23米

当前天气观测

该预报发布于37分钟前的08:20 UTC
风速14节,风向西
温度 6°C
湿度 81%
气压 1020 hPa
能见度10公里或以上
少量云层高于1000英尺
多云层高于4500英尺

METAR: ETMN 010820Z 26014KT 9999 FEW010 BKN045 06/03 Q1020 BLU BLU TEMPO WHT

时间: 10:57 (08:57 UTC)

预报

该预报发布于1小时和43分钟前的07:14 UTC
预报有效从01日的 08点(UTC)到 01日的 17点(UTC)
风速12节,风向西转西南
能见度10公里或以上
散云层高于2500英尺
多云层高于4500英尺
短暂存在
从 01日的 08点(UTC)到 01日的 17点(UTC)
风速15节,风向西
能见度10公里或以上
散云层高于1300英尺
多云层高于1500英尺

TAF: ETMN 010714Z 0108/0117 25012KT 9999 NSW SCT025 BKN045 TEMPO 0108/0117 26015KT 9999 NSW SCT013 BKN015

超过4000个机场的气象观测和天气预报(METAR&TAF报告)。

可查询的气象台以黄色和红色小点在地图上表示。

将鼠标移到小点上方,可查看气象台名称。

然后点击查看天气观测和预报。

如需切换地图:点击带黑十字的绿色按钮放大地图;点击带横线的绿色按钮缩小地图;或者点击绿色箭头查看邻近地区的地图。


METAR-TAF: